sensor_id;sensor_type;location;lat;lon;timestamp;temperature;humidity
9118;DHT22;4594;50.994;7.126;2023-04-01T00:00:59;13.20;57.50
9118;DHT22;4594;50.994;7.126;2023-04-01T00:03:26;13.30;57.60
9118;DHT22;4594;50.994;7.126;2023-04-01T00:05:54;13.20;57.60
9118;DHT22;4594;50.994;7.126;2023-04-01T00:08:24;13.20;57.50
9118;DHT22;4594;50.994;7.126;2023-04-01T00:10:51;13.20;57.60
9118;DHT22;4594;50.994;7.126;2023-04-01T00:13:18;13.20;57.80
9118;DHT22;4594;50.994;7.126;2023-04-01T00:15:45;13.20;57.80
9118;DHT22;4594;50.994;7.126;2023-04-01T00:18:11;13.20;57.80
9118;DHT22;4594;50.994;7.126;2023-04-01T00:20:37;13.10;57.70
9118;DHT22;4594;50.994;7.126;2023-04-01T00:23:03;13.20;57.70
9118;DHT22;4594;50.994;7.126;2023-04-01T00:25:30;13.20;57.70
9118;DHT22;4594;50.994;7.126;2023-04-01T00:27:56;13.20;57.80
9118;DHT22;4594;50.994;7.126;2023-04-01T00:30:22;13.20;57.70
9118;DHT22;4594;50.994;7.126;2023-04-01T00:32:51;13.30;57.80
9118;DHT22;4594;50.994;7.126;2023-04-01T00:35:18;13.30;57.60
9118;DHT22;4594;50.994;7.126;2023-04-01T00:37:44;13.30;57.80
9118;DHT22;4594;50.994;7.126;2023-04-01T00:40:23;13.30;57.80
9118;DHT22;4594;50.994;7.126;2023-04-01T00:42:50;13.30;56.60
9118;DHT22;4594;50.994;7.126;2023-04-01T00:45:46;13.30;57.80
9118;DHT22;4594;50.994;7.126;2023-04-01T00:48:16;13.30;56.10
9118;DHT22;4594;50.994;7.126;2023-04-01T00:50:55;13.30;57.40
9118;DHT22;4594;50.994;7.126;2023-04-01T00:53:48;13.30;57.40
9118;DHT22;4594;50.994;7.126;2023-04-01T00:56:22;13.30;57.60
9118;DHT22;4594;50.994;7.126;2023-04-01T00:59:30;13.30;57.10
9118;DHT22;4594;50.994;7.126;2023-04-01T01:01:59;13.40;56.40
9118;DHT22;4594;50.994;7.126;2023-04-01T01:04:31;13.30;57.80
9118;DHT22;4594;50.994;7.126;2023-04-01T01:12:40;13.30;57.30
9118;DHT22;4594;50.994;7.126;2023-04-01T01:15:36;13.30;57.20
9118;DHT22;4594;50.994;7.126;2023-04-01T01:18:32;13.30;56.60
9118;DHT22;4594;50.994;7.126;2023-04-01T01:21:50;13.30;57.30
9118;DHT22;4594;50.994;7.126;2023-04-01T01:24:52;13.30;56.20
9118;DHT22;4594;50.994;7.126;2023-04-01T01:27:23;13.30;56.60
9118;DHT22;4594;50.994;7.126;2023-04-01T01:32:54;13.30;56.60
9118;DHT22;4594;50.994;7.126;2023-04-01T01:38:16;13.30;56.90
9118;DHT22;4594;50.994;7.126;2023-04-01T01:40:47;13.30;57.70
9118;DHT22;4594;50.994;7.126;2023-04-01T01:43:19;13.30;57.70
9118;DHT22;4594;50.994;7.126;2023-04-01T01:45:51;13.30;57.80
9118;DHT22;4594;50.994;7.126;2023-04-01T01:48:22;13.30;57.80
9118;DHT22;4594;50.994;7.126;2023-04-01T01:50:50;13.30;58.00
9118;DHT22;4594;50.994;7.126;2023-04-01T01:53:16;13.30;58.10
9118;DHT22;4594;50.994;7.126;2023-04-01T01:55:46;13.20;57.90
9118;DHT22;4594;50.994;7.126;2023-04-01T01:58:31;13.30;57.60
9118;DHT22;4594;50.994;7.126;2023-04-01T02:01:07;13.30;56.80
9118;DHT22;4594;50.994;7.126;2023-04-01T02:03:39;13.30;57.80
9118;DHT22;4594;50.994;7.126;2023-04-01T02:06:10;13.30;57.70
9118;DHT22;4594;50.994;7.126;2023-04-01T02:08:44;13.20;57.80
9118;DHT22;4594;50.994;7.126;2023-04-01T02:11:16;13.20;57.60
9118;DHT22;4594;50.994;7.126;2023-04-01T02:14:01;13.20;57.90
9118;DHT22;4594;50.994;7.126;2023-04-01T02:17:21;13.20;56.90
9118;DHT22;4594;50.994;7.126;2023-04-01T02:19:59;13.20;57.30
9118;DHT22;4594;50.994;7.126;2023-04-01T02:22:38;13.20;57.30
9118;DHT22;4594;50.994;7.126;2023-04-01T02:25:20;13.10;57.50
9118;DHT22;4594;50.994;7.126;2023-04-01T02:27:49;13.10;57.00
9118;DHT22;4594;50.994;7.126;2023-04-01T02:30:16;13.10;57.90
9118;DHT22;4594;50.994;7.126;2023-04-01T02:32:43;13.10;57.90
9118;DHT22;4594;50.994;7.126;2023-04-01T02:35:11;13.10;57.90
9118;DHT22;4594;50.994;7.126;2023-04-01T02:37:39;13.00;57.80
9118;DHT22;4594;50.994;7.126;2023-04-01T02:40:10;13.00;58.00
9118;DHT22;4594;50.994;7.126;2023-04-01T02:42:37;12.90;57.90
9118;DHT22;4594;50.994;7.126;2023-04-01T02:45:04;12.90;58.10
9118;DHT22;4594;50.994;7.126;2023-04-01T02:47:31;12.90;58.10
9118;DHT22;4594;50.994;7.126;2023-04-01T02:49:57;12.90;58.10
9118;DHT22;4594;50.994;7.126;2023-04-01T02:52:25;12.80;58.00
9118;DHT22;4594;50.994;7.126;2023-04-01T02:54:52;12.80;58.10
9118;DHT22;4594;50.994;7.126;2023-04-01T02:57:18;12.70;58.10
9118;DHT22;4594;50.994;7.126;2023-04-01T02:59:44;12.70;58.20
9118;DHT22;4594;50.994;7.126;2023-04-01T03:02:10;12.70;58.30
9118;DHT22;4594;50.994;7.126;2023-04-01T03:04:35;12.70;58.30
9118;DHT22;4594;50.994;7.126;2023-04-01T03:07:01;12.70;58.40
9118;DHT22;4594;50.994;7.126;2023-04-01T03:09:27;12.60;58.50
9118;DHT22;4594;50.994;7.126;2023-04-01T03:11:54;12.50;58.50
9118;DHT22;4594;50.994;7.126;2023-04-01T03:14:20;12.50;58.60
9118;DHT22;4594;50.994;7.126;2023-04-01T03:16:45;12.50;58.80
9118;DHT22;4594;50.994;7.126;2023-04-01T03:19:11;12.40;58.90
9118;DHT22;4594;50.994;7.126;2023-04-01T03:21:37;12.40;59.00
9118;DHT22;4594;50.994;7.126;2023-04-01T03:24:03;12.40;59.10
9118;DHT22;4594;50.994;7.126;2023-04-01T03:26:28;12.40;59.20
9118;DHT22;4594;50.994;7.126;2023-04-01T03:28:55;12.30;59.20
9118;DHT22;4594;50.994;7.126;2023-04-01T03:31:21;12.30;59.30
9118;DHT22;4594;50.994;7.126;2023-04-01T03:33:47;12.30;59.70
9118;DHT22;4594;50.994;7.126;2023-04-01T03:36:13;12.30;59.50
9118;DHT22;4594;50.994;7.126;2023-04-01T03:38:42;12.30;59.50
9118;DHT22;4594;50.994;7.126;2023-04-01T03:41:13;12.30;59.50
9118;DHT22;4594;50.994;7.126;2023-04-01T03:43:40;12.20;59.50
9118;DHT22;4594;50.994;7.126;2023-04-01T03:46:07;12.20;59.70
9118;DHT22;4594;50.994;7.126;2023-04-01T03:48:33;12.20;59.80
9118;DHT22;4594;50.994;7.126;2023-04-01T03:50:58;12.20;59.90
9118;DHT22;4594;50.994;7.126;2023-04-01T03:53:24;12.20;60.00
9118;DHT22;4594;50.994;7.126;2023-04-01T03:55:50;12.20;60.20
9118;DHT22;4594;50.994;7.126;2023-04-01T03:58:17;12.30;60.50
9118;DHT22;4594;50.994;7.126;2023-04-01T04:00:43;12.20;60.50
9118;DHT22;4594;50.994;7.126;2023-04-01T04:03:09;12.20;60.60
9118;DHT22;4594;50.994;7.126;2023-04-01T04:05:34;12.20;60.70
9118;DHT22;4594;50.994;7.126;2023-04-01T04:08:00;12.30;60.90
9118;DHT22;4594;50.994;7.126;2023-04-01T04:10:26;12.30;60.90
9118;DHT22;4594;50.994;7.126;2023-04-01T04:12:52;12.30;61.00
9118;DHT22;4594;50.994;7.126;2023-04-01T04:15:18;12.30;61.00
9118;DHT22;4594;50.994;7.126;2023-04-01T04:17:45;12.30;61.10
9118;DHT22;4594;50.994;7.126;2023-04-01T04:20:10;12.30;61.10
9118;DHT22;4594;50.994;7.126;2023-04-01T04:22:36;12.30;61.10
9118;DHT22;4594;50.994;7.126;2023-04-01T04:25:02;12.30;61.20
9118;DHT22;4594;50.994;7.126;2023-04-01T04:27:28;12.30;61.30
9118;DHT22;4594;50.994;7.126;2023-04-01T04:29:53;12.30;61.30
9118;DHT22;4594;50.994;7.126;2023-04-01T04:32:19;12.40;61.40
9118;DHT22;4594;50.994;7.126;2023-04-01T04:34:45;12.40;61.40
9118;DHT22;4594;50.994;7.126;2023-04-01T04:37:11;12.40;61.40
9118;DHT22;4594;50.994;7.126;2023-04-01T04:39:37;12.40;61.30
9118;DHT22;4594;50.994;7.126;2023-04-01T04:42:02;12.40;61.20
9118;DHT22;4594;50.994;7.126;2023-04-01T04:44:28;12.40;61.10
9118;DHT22;4594;50.994;7.126;2023-04-01T04:46:54;12.40;61.10
9118;DHT22;4594;50.994;7.126;2023-04-01T04:49:20;12.40;61.00
9118;DHT22;4594;50.994;7.126;2023-04-01T04:51:45;12.40;61.10
9118;DHT22;4594;50.994;7.126;2023-04-01T04:54:11;12.40;61.20
9118;DHT22;4594;50.994;7.126;2023-04-01T04:56:37;12.40;61.10
9118;DHT22;4594;50.994;7.126;2023-04-01T04:59:03;12.40;61.20
9118;DHT22;4594;50.994;7.126;2023-04-01T05:01:28;12.40;61.20
9118;DHT22;4594;50.994;7.126;2023-04-01T05:03:54;12.40;61.30
9118;DHT22;4594;50.994;7.126;2023-04-01T05:06:20;12.40;61.30
9118;DHT22;4594;50.994;7.126;2023-04-01T05:08:46;12.50;61.40
9118;DHT22;4594;50.994;7.126;2023-04-01T05:11:17;12.50;61.40
9118;DHT22;4594;50.994;7.126;2023-04-01T05:13:45;12.50;61.30
9118;DHT22;4594;50.994;7.126;2023-04-01T05:16:13;12.40;61.30
9118;DHT22;4594;50.994;7.126;2023-04-01T05:18:40;12.50;61.40
9118;DHT22;4594;50.994;7.126;2023-04-01T05:21:08;12.50;61.70
9118;DHT22;4594;50.994;7.126;2023-04-01T05:23:35;12.50;61.80
9118;DHT22;4594;50.994;7.126;2023-04-01T05:26:06;12.50;62.20
9118;DHT22;4594;50.994;7.126;2023-04-01T05:28:34;12.50;61.80
9118;DHT22;4594;50.994;7.126;2023-04-01T05:31:01;12.50;62.30
9118;DHT22;4594;50.994;7.126;2023-04-01T05:33:28;12.50;62.50
9118;DHT22;4594;50.994;7.126;2023-04-01T05:35:55;12.60;62.60
9118;DHT22;4594;50.994;7.126;2023-04-01T05:38:21;12.60;62.60
9118;DHT22;4594;50.994;7.126;2023-04-01T05:40:47;12.60;62.60
9118;DHT22;4594;50.994;7.126;2023-04-01T05:43:13;12.60;62.70
9118;DHT22;4594;50.994;7.126;2023-04-01T05:45:38;12.60;62.70
9118;DHT22;4594;50.994;7.126;2023-04-01T05:48:04;12.60;62.70
9118;DHT22;4594;50.994;7.126;2023-04-01T05:50:30;12.60;62.70
9118;DHT22;4594;50.994;7.126;2023-04-01T05:52:56;12.60;62.60
9118;DHT22;4594;50.994;7.126;2023-04-01T05:55:22;12.70;62.70
9118;DHT22;4594;50.994;7.126;2023-04-01T05:57:48;12.70;62.80
9118;DHT22;4594;50.994;7.126;2023-04-01T06:00:15;12.70;62.80
9118;DHT22;4594;50.994;7.126;2023-04-01T06:02:42;12.70;62.70
9118;DHT22;4594;50.994;7.126;2023-04-01T06:05:23;12.70;62.70
9118;DHT22;4594;50.994;7.126;2023-04-01T06:07:58;12.70;62.10
9118;DHT22;4594;50.994;7.126;2023-04-01T06:19:36;12.80;61.90
9118;DHT22;4594;50.994;7.126;2023-04-01T06:25:29;12.70;61.80
9118;DHT22;4594;50.994;7.126;2023-04-01T06:31:23;12.70;62.00
9118;DHT22;4594;50.994;7.126;2023-04-01T06:34:33;12.70;62.40
9118;DHT22;4594;50.994;7.126;2023-04-01T06:40:12;12.70;62.20
9118;DHT22;4594;50.994;7.126;2023-04-01T06:43:10;12.80;62.10
9118;DHT22;4594;50.994;7.126;2023-04-01T06:46:32;12.80;62.80
9118;DHT22;4594;50.994;7.126;2023-04-01T06:58:53;12.90;62.30
9118;DHT22;4594;50.994;7.126;2023-04-01T07:01:20;12.90;63.20
9118;DHT22;4594;50.994;7.126;2023-04-01T07:06:45;12.90;63.00
9118;DHT22;4594;50.994;7.126;2023-04-01T07:09:16;12.90;63.20
9118;DHT22;4594;50.994;7.126;2023-04-01T07:11:46;13.00;63.60
9118;DHT22;4594;50.994;7.126;2023-04-01T07:16:49;13.00;63.90
9118;DHT22;4594;50.994;7.126;2023-04-01T07:19:32;13.10;63.70
9118;DHT22;4594;50.994;7.126;2023-04-01T07:22:29;13.10;63.00
9118;DHT22;4594;50.994;7.126;2023-04-01T07:25:24;13.10;63.20
9118;DHT22;4594;50.994;7.126;2023-04-01T07:27:55;13.10;62.70
9118;DHT22;4594;50.994;7.126;2023-04-01T07:30:24;13.20;64.10
9118;DHT22;4594;50.994;7.126;2023-04-01T07:33:05;13.20;64.00
9118;DHT22;4594;50.994;7.126;2023-04-01T07:35:46;13.20;62.90
9118;DHT22;4594;50.994;7.126;2023-04-01T07:41:45;13.20;62.70
9118;DHT22;4594;50.994;7.126;2023-04-01T07:50:32;13.20;63.60
9118;DHT22;4594;50.994;7.126;2023-04-01T07:56:13;13.20;62.50
9118;DHT22;4594;50.994;7.126;2023-04-01T08:01:36;13.20;63.90
9118;DHT22;4594;50.994;7.126;2023-04-01T08:04:45;13.30;63.50
9118;DHT22;4594;50.994;7.126;2023-04-01T08:07:17;13.30;63.00
9118;DHT22;4594;50.994;7.126;2023-04-01T08:10:29;13.20;63.80
9118;DHT22;4594;50.994;7.126;2023-04-01T08:18:26;13.30;63.20
9118;DHT22;4594;50.994;7.126;2023-04-01T08:21:10;13.30;62.90
9118;DHT22;4594;50.994;7.126;2023-04-01T08:23:58;13.40;63.90
9118;DHT22;4594;50.994;7.126;2023-04-01T08:29:15;13.40;64.20
9118;DHT22;4594;50.994;7.126;2023-04-01T08:34:34;13.50;63.30
9118;DHT22;4594;50.994;7.126;2023-04-01T08:37:17;13.50;63.70
9118;DHT22;4594;50.994;7.126;2023-04-01T08:39:50;13.50;63.00
9118;DHT22;4594;50.994;7.126;2023-04-01T08:50:48;13.50;63.40
9118;DHT22;4594;50.994;7.126;2023-04-01T09:06:29;13.50;62.20
9118;DHT22;4594;50.994;7.126;2023-04-01T09:21:18;13.50;63.60
9118;DHT22;4594;50.994;7.126;2023-04-01T09:24:10;13.50;63.70
9118;DHT22;4594;50.994;7.126;2023-04-01T09:27:09;13.60;63.40
9118;DHT22;4594;50.994;7.126;2023-04-01T09:38:56;13.60;63.80
9118;DHT22;4594;50.994;7.126;2023-04-01T09:41:31;13.60;63.90
9118;DHT22;4594;50.994;7.126;2023-04-01T09:58:25;13.70;63.50
9118;DHT22;4594;50.994;7.126;2023-04-01T10:04:17;13.70;63.30
9118;DHT22;4594;50.994;7.126;2023-04-01T10:07:03;13.70;63.30
9118;DHT22;4594;50.994;7.126;2023-04-01T10:16:10;13.80;62.80
9118;DHT22;4594;50.994;7.126;2023-04-01T10:21:59;13.80;62.90
9118;DHT22;4594;50.994;7.126;2023-04-01T10:46:57;13.90;64.10
9118;DHT22;4594;50.994;7.126;2023-04-01T10:53:39;13.90;63.40
9118;DHT22;4594;50.994;7.126;2023-04-01T10:56:40;14.00;63.40
9118;DHT22;4594;50.994;7.126;2023-04-01T11:21:57;14.10;62.50
9118;DHT22;4594;50.994;7.126;2023-04-01T11:37:27;14.10;63.40
9118;DHT22;4594;50.994;7.126;2023-04-01T11:40:57;14.10;64.00
9118;DHT22;4594;50.994;7.126;2023-04-01T11:44:16;14.10;63.30
9118;DHT22;4594;50.994;7.126;2023-04-01T11:53:23;14.10;63.80
9118;DHT22;4594;50.994;7.126;2023-04-01T11:55:55;14.20;64.90
9118;DHT22;4594;50.994;7.126;2023-04-01T11:59:11;14.20;65.30
9118;DHT22;4594;50.994;7.126;2023-04-01T12:19:51;14.50;65.40
9118;DHT22;4594;50.994;7.126;2023-04-01T12:22:45;14.50;65.40
9118;DHT22;4594;50.994;7.126;2023-04-01T12:34:58;14.60;64.00
9118;DHT22;4594;50.994;7.126;2023-04-01T12:49:22;14.70;64.10
9118;DHT22;4594;50.994;7.126;2023-04-01T13:03:39;14.70;62.80
9118;DHT22;4594;50.994;7.126;2023-04-01T13:09:11;14.80;62.70
9118;DHT22;4594;50.994;7.126;2023-04-01T13:12:19;14.80;64.70
9118;DHT22;4594;50.994;7.126;2023-04-01T13:21:15;14.70;61.90
9118;DHT22;4594;50.994;7.126;2023-04-01T13:26:52;14.60;61.80
9118;DHT22;4594;50.994;7.126;2023-04-01T13:29:52;14.60;63.90
9118;DHT22;4594;50.994;7.126;2023-04-01T13:32:50;14.70;63.30
9118;DHT22;4594;50.994;7.126;2023-04-01T13:48:14;14.60;62.60
9118;DHT22;4594;50.994;7.126;2023-04-01T13:56:29;14.70;63.60
9118;DHT22;4594;50.994;7.126;2023-04-01T13:59:57;14.70;63.60
9118;DHT22;4594;50.994;7.126;2023-04-01T14:14:19;14.60;62.30
9118;DHT22;4594;50.994;7.126;2023-04-01T14:20:36;14.60;62.40
9118;DHT22;4594;50.994;7.126;2023-04-01T14:41:07;14.40;61.90
9118;DHT22;4594;50.994;7.126;2023-04-01T14:44:04;14.40;62.60
9118;DHT22;4594;50.994;7.126;2023-04-01T14:50:06;14.40;62.70
9118;DHT22;4594;50.994;7.126;2023-04-01T14:53:10;14.40;64.00
9118;DHT22;4594;50.994;7.126;2023-04-01T14:58:12;14.30;64.60
9118;DHT22;4594;50.994;7.126;2023-04-01T15:03:20;14.30;64.60
9118;DHT22;4594;50.994;7.126;2023-04-01T15:12:01;14.40;64.10
9118;DHT22;4594;50.994;7.126;2023-04-01T15:14:44;14.30;63.10
9118;DHT22;4594;50.994;7.126;2023-04-01T15:26:30;14.30;63.40
9118;DHT22;4594;50.994;7.126;2023-04-01T15:35:09;14.30;63.00
9118;DHT22;4594;50.994;7.126;2023-04-01T15:37:51;14.30;63.90
9118;DHT22;4594;50.994;7.126;2023-04-01T15:40:47;14.30;63.40
9118;DHT22;4594;50.994;7.126;2023-04-01T15:43:41;14.20;63.90
9118;DHT22;4594;50.994;7.126;2023-04-01T15:49:19;14.30;64.40
9118;DHT22;4594;50.994;7.126;2023-04-01T16:30:02;14.00;63.10
9118;DHT22;4594;50.994;7.126;2023-04-01T16:35:53;14.00;63.10
9118;DHT22;4594;50.994;7.126;2023-04-01T16:41:09;13.90;62.50
9118;DHT22;4594;50.994;7.126;2023-04-01T16:43:48;13.90;63.20
9118;DHT22;4594;50.994;7.126;2023-04-01T16:46:29;13.90;62.80
9118;DHT22;4594;50.994;7.126;2023-04-01T16:49:44;13.80;63.00
9118;DHT22;4594;50.994;7.126;2023-04-01T16:55:03;13.80;63.80
9118;DHT22;4594;50.994;7.126;2023-04-01T16:57:45;13.80;62.80
9118;DHT22;4594;50.994;7.126;2023-04-01T17:03:09;13.80;64.10
9118;DHT22;4594;50.994;7.126;2023-04-01T17:06:07;13.80;62.80
9118;DHT22;4594;50.994;7.126;2023-04-01T17:08:48;13.80;63.80
9118;DHT22;4594;50.994;7.126;2023-04-01T17:14:28;13.70;63.50
9118;DHT22;4594;50.994;7.126;2023-04-01T17:17:05;13.70;63.50
9118;DHT22;4594;50.994;7.126;2023-04-01T17:23:14;13.70;63.70
9118;DHT22;4594;50.994;7.126;2023-04-01T17:32:16;13.70;62.70
9118;DHT22;4594;50.994;7.126;2023-04-01T17:38:11;13.60;63.40
9118;DHT22;4594;50.994;7.126;2023-04-01T17:53:06;13.50;62.20
9118;DHT22;4594;50.994;7.126;2023-04-01T17:56:14;13.40;63.20
9118;DHT22;4594;50.994;7.126;2023-04-01T18:01:58;13.40;63.40
9118;DHT22;4594;50.994;7.126;2023-04-01T18:04:55;13.30;63.30
9118;DHT22;4594;50.994;7.126;2023-04-01T18:16:16;13.30;63.80
9118;DHT22;4594;50.994;7.126;2023-04-01T18:36:59;13.20;62.80
9118;DHT22;4594;50.994;7.126;2023-04-01T18:39:46;13.20;62.70
9118;DHT22;4594;50.994;7.126;2023-04-01T18:42:41;13.20;63.20
9118;DHT22;4594;50.994;7.126;2023-04-01T18:45:34;13.20;62.70
9118;DHT22;4594;50.994;7.126;2023-04-01T18:51:57;13.10;62.40
9118;DHT22;4594;50.994;7.126;2023-04-01T18:54:47;13.10;62.80
9118;DHT22;4594;50.994;7.126;2023-04-01T18:57:51;13.10;63.30
9118;DHT22;4594;50.994;7.126;2023-04-01T19:00:20;13.10;62.80
9118;DHT22;4594;50.994;7.126;2023-04-01T19:03:16;13.10;64.00
9118;DHT22;4594;50.994;7.126;2023-04-01T19:05:49;13.10;63.30
9118;DHT22;4594;50.994;7.126;2023-04-01T19:08:32;13.10;64.00
9118;DHT22;4594;50.994;7.126;2023-04-01T19:26:12;13.00;62.90
9118;DHT22;4594;50.994;7.126;2023-04-01T19:29:01;13.10;63.20
9118;DHT22;4594;50.994;7.126;2023-04-01T19:37:05;13.00;63.80
9118;DHT22;4594;50.994;7.126;2023-04-01T19:40:20;13.00;63.60
9118;DHT22;4594;50.994;7.126;2023-04-01T19:45:50;13.00;63.20
9118;DHT22;4594;50.994;7.126;2023-04-01T19:54:33;12.90;63.30
9118;DHT22;4594;50.994;7.126;2023-04-01T20:00:07;12.90;64.00
9118;DHT22;4594;50.994;7.126;2023-04-01T20:03:01;12.90;63.50
9118;DHT22;4594;50.994;7.126;2023-04-01T20:05:52;12.90;64.30
9118;DHT22;4594;50.994;7.126;2023-04-01T20:08:28;12.90;63.20
9118;DHT22;4594;50.994;7.126;2023-04-01T20:19:59;12.90;63.60
9118;DHT22;4594;50.994;7.126;2023-04-01T20:22:50;12.90;63.40
9118;DHT22;4594;50.994;7.126;2023-04-01T20:25:40;12.90;63.60
9118;DHT22;4594;50.994;7.126;2023-04-01T20:31:22;12.80;63.80
9118;DHT22;4594;50.994;7.126;2023-04-01T20:40:37;12.80;62.60
9118;DHT22;4594;50.994;7.126;2023-04-01T20:43:33;12.80;62.70
9118;DHT22;4594;50.994;7.126;2023-04-01T20:46:31;12.80;62.90
9118;DHT22;4594;50.994;7.126;2023-04-01T20:52:40;12.70;63.40
9118;DHT22;4594;50.994;7.126;2023-04-01T20:57:31;12.70;64.00
9118;DHT22;4594;50.994;7.126;2023-04-01T21:09:15;12.70;63.10
9118;DHT22;4594;50.994;7.126;2023-04-01T21:15:19;12.60;63.30
9118;DHT22;4594;50.994;7.126;2023-04-01T21:18:06;12.60;63.00
9118;DHT22;4594;50.994;7.126;2023-04-01T21:26:48;12.60;63.40
9118;DHT22;4594;50.994;7.126;2023-04-01T21:35:35;12.60;63.20
9118;DHT22;4594;50.994;7.126;2023-04-01T21:38:42;12.60;64.30
9118;DHT22;4594;50.994;7.126;2023-04-01T21:44:55;12.70;63.50
9118;DHT22;4594;50.994;7.126;2023-04-01T21:53:47;12.60;63.90
9118;DHT22;4594;50.994;7.126;2023-04-01T21:57:29;12.60;64.30
9118;DHT22;4594;50.994;7.126;2023-04-01T22:09:10;12.50;62.80
9118;DHT22;4594;50.994;7.126;2023-04-01T22:15:02;12.50;63.30
9118;DHT22;4594;50.994;7.126;2023-04-01T22:17:32;12.50;63.80
9118;DHT22;4594;50.994;7.126;2023-04-01T22:23:07;12.50;63.50
9118;DHT22;4594;50.994;7.126;2023-04-01T22:25:53;12.50;63.70
9118;DHT22;4594;50.994;7.126;2023-04-01T22:31:00;12.40;63.70
9118;DHT22;4594;50.994;7.126;2023-04-01T22:33:38;12.50;64.20
9118;DHT22;4594;50.994;7.126;2023-04-01T22:39:38;12.40;63.80
9118;DHT22;4594;50.994;7.126;2023-04-01T22:44:57;12.40;64.20
9118;DHT22;4594;50.994;7.126;2023-04-01T22:47:57;12.40;64.30
9118;DHT22;4594;50.994;7.126;2023-04-01T22:57:03;12.40;63.70
9118;DHT22;4594;50.994;7.126;2023-04-01T22:59:54;12.40;63.80
9118;DHT22;4594;50.994;7.126;2023-04-01T23:02:29;12.40;63.60
9118;DHT22;4594;50.994;7.126;2023-04-01T23:05:00;12.40;64.10
9118;DHT22;4594;50.994;7.126;2023-04-01T23:07:56;12.40;64.10
9118;DHT22;4594;50.994;7.126;2023-04-01T23:11:08;12.40;63.20
9118;DHT22;4594;50.994;7.126;2023-04-01T23:13:47;12.40;63.80
9118;DHT22;4594;50.994;7.126;2023-04-01T23:16:25;12.40;63.80
9118;DHT22;4594;50.994;7.126;2023-04-01T23:35:53;12.30;63.50
9118;DHT22;4594;50.994;7.126;2023-04-01T23:38:24;12.30;64.00
9118;DHT22;4594;50.994;7.126;2023-04-01T23:40:53;12.30;64.40
9118;DHT22;4594;50.994;7.126;2023-04-01T23:43:53;12.30;64.60
9118;DHT22;4594;50.994;7.126;2023-04-01T23:46:24;12.30;63.40
9118;DHT22;4594;50.994;7.126;2023-04-01T23:48:52;12.30;64.70
9118;DHT22;4594;50.994;7.126;2023-04-01T23:51:28;12.30;64.80
9118;DHT22;4594;50.994;7.126;2023-04-01T23:54:19;12.30;64.70
9118;DHT22;4594;50.994;7.126;2023-04-01T23:56:53;12.30;63.90
9118;DHT22;4594;50.994;7.126;2023-04-01T23:59:32;12.30;64.90
